sensor_id;sensor_type;location;lat;lon;timestamp;P1;durP1;ratioP1;P2;durP2;ratioP2
3625;SDS011;1827;50.534;8.316;2023-03-31T00:01:47;13.50;;;1.40;;
3625;SDS011;1827;50.534;8.316;2023-03-31T00:04:13;12.20;;;1.40;;
3625;SDS011;1827;50.534;8.316;2023-03-31T00:06:40;15.60;;;1.80;;
3625;SDS011;1827;50.534;8.316;2023-03-31T00:09:11;14.70;;;1.60;;
3625;SDS011;1827;50.534;8.316;2023-03-31T00:11:39;14.70;;;1.80;;
3625;SDS011;1827;50.534;8.316;2023-03-31T00:14:06;17.40;;;1.70;;
3625;SDS011;1827;50.534;8.316;2023-03-31T00:16:33;15.43;;;1.80;;
3625;SDS011;1827;50.534;8.316;2023-03-31T00:18:59;14.40;;;1.53;;
3625;SDS011;1827;50.534;8.316;2023-03-31T00:21:26;16.93;;;1.70;;
3625;SDS011;1827;50.534;8.316;2023-03-31T00:24:08;14.77;;;1.60;;
3625;SDS011;1827;50.534;8.316;2023-03-31T00:26:35;14.83;;;1.70;;
3625;SDS011;1827;50.534;8.316;2023-03-31T00:29:02;18.53;;;3.10;;
3625;SDS011;1827;50.534;8.316;2023-03-31T00:31:29;18.40;;;2.00;;
3625;SDS011;1827;50.534;8.316;2023-03-31T00:33:57;14.93;;;1.77;;
3625;SDS011;1827;50.534;8.316;2023-03-31T00:36:23;13.47;;;1.50;;
3625;SDS011;1827;50.534;8.316;2023-03-31T00:38:55;15.13;;;1.90;;
3625;SDS011;1827;50.534;8.316;2023-03-31T00:41:34;20.13;;;2.30;;
3625;SDS011;1827;50.534;8.316;2023-03-31T00:49:10;19.03;;;2.50;;
3625;SDS011;1827;50.534;8.316;2023-03-31T00:51:40;20.17;;;2.33;;
3625;SDS011;1827;50.534;8.316;2023-03-31T00:54:07;18.50;;;2.57;;
3625;SDS011;1827;50.534;8.316;2023-03-31T00:56:36;16.80;;;2.23;;
3625;SDS011;1827;50.534;8.316;2023-03-31T00:59:07;18.70;;;2.77;;
3625;SDS011;1827;50.534;8.316;2023-03-31T01:01:36;19.37;;;2.37;;
3625;SDS011;1827;50.534;8.316;2023-03-31T01:04:07;18.00;;;2.10;;
3625;SDS011;1827;50.534;8.316;2023-03-31T01:06:36;26.00;;;2.10;;
3625;SDS011;1827;50.534;8.316;2023-03-31T01:09:06;20.57;;;2.30;;
3625;SDS011;1827;50.534;8.316;2023-03-31T01:11:32;13.70;;;2.00;;
3625;SDS011;1827;50.534;8.316;2023-03-31T01:13:59;18.80;;;2.10;;
3625;SDS011;1827;50.534;8.316;2023-03-31T01:16:25;20.20;;;1.90;;
3625;SDS011;1827;50.534;8.316;2023-03-31T01:18:53;18.80;;;2.13;;
3625;SDS011;1827;50.534;8.316;2023-03-31T01:24:34;18.70;;;2.33;;
3625;SDS011;1827;50.534;8.316;2023-03-31T01:40:51;14.17;;;2.10;;
3625;SDS011;1827;50.534;8.316;2023-03-31T01:46:18;17.93;;;2.40;;
3625;SDS011;1827;50.534;8.316;2023-03-31T01:52:02;16.53;;;1.90;;
3625;SDS011;1827;50.534;8.316;2023-03-31T01:54:49;18.87;;;2.30;;
3625;SDS011;1827;50.534;8.316;2023-03-31T01:57:33;17.47;;;1.70;;
3625;SDS011;1827;50.534;8.316;2023-03-31T02:00:12;16.60;;;1.90;;
3625;SDS011;1827;50.534;8.316;2023-03-31T02:02:44;19.33;;;2.40;;
3625;SDS011;1827;50.534;8.316;2023-03-31T02:05:24;15.57;;;2.37;;
3625;SDS011;1827;50.534;8.316;2023-03-31T02:08:02;15.30;;;2.20;;
3625;SDS011;1827;50.534;8.316;2023-03-31T02:10:38;16.80;;;2.20;;
3625;SDS011;1827;50.534;8.316;2023-03-31T02:13:06;19.40;;;2.10;;
3625;SDS011;1827;50.534;8.316;2023-03-31T02:15:36;19.30;;;2.40;;
3625;SDS011;1827;50.534;8.316;2023-03-31T02:18:06;23.10;;;2.60;;
3625;SDS011;1827;50.534;8.316;2023-03-31T02:20:37;19.90;;;2.67;;
3625;SDS011;1827;50.534;8.316;2023-03-31T02:23:08;16.87;;;2.20;;
3625;SDS011;1827;50.534;8.316;2023-03-31T02:25:41;15.07;;;2.00;;
3625;SDS011;1827;50.534;8.316;2023-03-31T02:28:18;20.00;;;2.07;;
3625;SDS011;1827;50.534;8.316;2023-03-31T02:31:03;19.97;;;2.60;;
3625;SDS011;1827;50.534;8.316;2023-03-31T02:33:51;20.97;;;2.30;;
3625;SDS011;1827;50.534;8.316;2023-03-31T02:36:18;18.33;;;1.90;;
3625;SDS011;1827;50.534;8.316;2023-03-31T02:38:46;23.03;;;2.50;;
3625;SDS011;1827;50.534;8.316;2023-03-31T02:41:19;21.23;;;2.43;;
3625;SDS011;1827;50.534;8.316;2023-03-31T02:43:44;19.23;;;1.97;;
3625;SDS011;1827;50.534;8.316;2023-03-31T02:46:10;15.87;;;2.13;;
3625;SDS011;1827;50.534;8.316;2023-03-31T02:48:40;23.57;;;2.30;;
3625;SDS011;1827;50.534;8.316;2023-03-31T02:54:17;19.67;;;2.73;;
3625;SDS011;1827;50.534;8.316;2023-03-31T03:05:46;22.43;;;2.40;;
3625;SDS011;1827;50.534;8.316;2023-03-31T03:11:52;16.30;;;2.30;;
3625;SDS011;1827;50.534;8.316;2023-03-31T03:17:19;19.70;;;2.43;;
3625;SDS011;1827;50.534;8.316;2023-03-31T03:19:53;20.90;;;2.37;;
3625;SDS011;1827;50.534;8.316;2023-03-31T03:22:22;17.10;;;2.07;;
3625;SDS011;1827;50.534;8.316;2023-03-31T03:24:48;15.53;;;2.30;;
3625;SDS011;1827;50.534;8.316;2023-03-31T03:27:14;21.23;;;2.30;;
3625;SDS011;1827;50.534;8.316;2023-03-31T03:29:40;18.57;;;2.50;;
3625;SDS011;1827;50.534;8.316;2023-03-31T03:32:07;21.67;;;3.03;;
3625;SDS011;1827;50.534;8.316;2023-03-31T03:34:33;19.20;;;2.73;;
3625;SDS011;1827;50.534;8.316;2023-03-31T03:36:59;16.43;;;2.30;;
3625;SDS011;1827;50.534;8.316;2023-03-31T03:39:25;20.33;;;3.37;;
3625;SDS011;1827;50.534;8.316;2023-03-31T03:41:51;16.60;;;2.70;;
3625;SDS011;1827;50.534;8.316;2023-03-31T03:44:16;32.27;;;4.57;;
3625;SDS011;1827;50.534;8.316;2023-03-31T03:46:42;23.00;;;4.27;;
3625;SDS011;1827;50.534;8.316;2023-03-31T03:49:07;22.50;;;4.33;;
3625;SDS011;1827;50.534;8.316;2023-03-31T03:51:33;20.60;;;3.30;;
3625;SDS011;1827;50.534;8.316;2023-03-31T03:53:59;27.77;;;3.33;;
3625;SDS011;1827;50.534;8.316;2023-03-31T03:56:25;21.53;;;3.70;;
3625;SDS011;1827;50.534;8.316;2023-03-31T03:58:51;32.77;;;3.97;;
3625;SDS011;1827;50.534;8.316;2023-03-31T04:01:17;20.33;;;4.00;;
3625;SDS011;1827;50.534;8.316;2023-03-31T04:03:43;22.80;;;4.03;;
3625;SDS011;1827;50.534;8.316;2023-03-31T04:06:08;17.70;;;3.23;;
3625;SDS011;1827;50.534;8.316;2023-03-31T04:08:34;21.27;;;3.10;;
3625;SDS011;1827;50.534;8.316;2023-03-31T04:11:01;20.13;;;3.40;;
3625;SDS011;1827;50.534;8.316;2023-03-31T04:13:26;18.37;;;3.50;;
3625;SDS011;1827;50.534;8.316;2023-03-31T04:15:52;22.67;;;3.00;;
3625;SDS011;1827;50.534;8.316;2023-03-31T04:18:18;24.57;;;3.80;;
3625;SDS011;1827;50.534;8.316;2023-03-31T04:20:52;19.90;;;2.93;;
3625;SDS011;1827;50.534;8.316;2023-03-31T04:23:38;17.37;;;3.00;;
3625;SDS011;1827;50.534;8.316;2023-03-31T04:26:10;18.90;;;2.73;;
3625;SDS011;1827;50.534;8.316;2023-03-31T04:28:37;24.43;;;3.80;;
3625;SDS011;1827;50.534;8.316;2023-03-31T04:31:10;23.50;;;3.63;;
3625;SDS011;1827;50.534;8.316;2023-03-31T04:33:39;22.47;;;3.60;;
3625;SDS011;1827;50.534;8.316;2023-03-31T04:36:06;26.43;;;3.40;;
3625;SDS011;1827;50.534;8.316;2023-03-31T04:38:42;21.00;;;3.97;;
3625;SDS011;1827;50.534;8.316;2023-03-31T04:41:13;22.47;;;3.83;;
3625;SDS011;1827;50.534;8.316;2023-03-31T04:43:41;25.00;;;3.73;;
3625;SDS011;1827;50.534;8.316;2023-03-31T04:46:07;31.23;;;3.77;;
3625;SDS011;1827;50.534;8.316;2023-03-31T04:48:34;21.53;;;3.07;;
3625;SDS011;1827;50.534;8.316;2023-03-31T04:51:00;16.60;;;2.90;;
3625;SDS011;1827;50.534;8.316;2023-03-31T04:53:26;23.10;;;3.07;;
3625;SDS011;1827;50.534;8.316;2023-03-31T04:55:51;23.83;;;3.57;;
3625;SDS011;1827;50.534;8.316;2023-03-31T04:58:17;22.40;;;3.07;;
3625;SDS011;1827;50.534;8.316;2023-03-31T05:00:43;27.40;;;3.07;;
3625;SDS011;1827;50.534;8.316;2023-03-31T05:03:10;25.73;;;3.20;;
3625;SDS011;1827;50.534;8.316;2023-03-31T05:05:36;22.80;;;3.10;;
3625;SDS011;1827;50.534;8.316;2023-03-31T05:08:03;21.80;;;3.43;;
3625;SDS011;1827;50.534;8.316;2023-03-31T05:10:29;22.00;;;3.37;;
3625;SDS011;1827;50.534;8.316;2023-03-31T05:12:55;20.87;;;3.10;;
3625;SDS011;1827;50.534;8.316;2023-03-31T05:15:21;19.57;;;3.23;;
3625;SDS011;1827;50.534;8.316;2023-03-31T05:17:48;24.53;;;3.53;;
3625;SDS011;1827;50.534;8.316;2023-03-31T05:20:14;24.90;;;3.30;;
3625;SDS011;1827;50.534;8.316;2023-03-31T05:22:40;22.50;;;3.30;;
3625;SDS011;1827;50.534;8.316;2023-03-31T05:25:06;18.97;;;3.23;;
3625;SDS011;1827;50.534;8.316;2023-03-31T05:27:33;19.13;;;3.57;;
3625;SDS011;1827;50.534;8.316;2023-03-31T05:30:00;21.80;;;3.93;;
3625;SDS011;1827;50.534;8.316;2023-03-31T05:32:27;21.87;;;3.43;;
3625;SDS011;1827;50.534;8.316;2023-03-31T05:34:53;28.20;;;5.27;;
3625;SDS011;1827;50.534;8.316;2023-03-31T05:37:24;27.50;;;3.50;;
3625;SDS011;1827;50.534;8.316;2023-03-31T05:39:51;22.70;;;3.93;;
3625;SDS011;1827;50.534;8.316;2023-03-31T05:42:17;28.40;;;4.10;;
3625;SDS011;1827;50.534;8.316;2023-03-31T05:44:43;27.57;;;3.60;;
3625;SDS011;1827;50.534;8.316;2023-03-31T05:47:10;21.57;;;3.60;;
3625;SDS011;1827;50.534;8.316;2023-03-31T05:49:36;19.73;;;3.43;;
3625;SDS011;1827;50.534;8.316;2023-03-31T05:52:02;25.27;;;3.40;;
3625;SDS011;1827;50.534;8.316;2023-03-31T05:54:34;20.00;;;3.30;;
3625;SDS011;1827;50.534;8.316;2023-03-31T05:56:59;27.17;;;3.43;;
3625;SDS011;1827;50.534;8.316;2023-03-31T05:59:25;24.10;;;3.43;;
3625;SDS011;1827;50.534;8.316;2023-03-31T06:01:51;21.97;;;3.07;;
3625;SDS011;1827;50.534;8.316;2023-03-31T06:04:16;21.03;;;3.33;;
3625;SDS011;1827;50.534;8.316;2023-03-31T06:06:42;24.17;;;3.67;;
3625;SDS011;1827;50.534;8.316;2023-03-31T06:09:10;23.50;;;3.97;;
3625;SDS011;1827;50.534;8.316;2023-03-31T06:11:36;25.50;;;4.20;;
3625;SDS011;1827;50.534;8.316;2023-03-31T06:14:03;21.97;;;3.87;;
3625;SDS011;1827;50.534;8.316;2023-03-31T06:16:29;21.07;;;4.10;;
3625;SDS011;1827;50.534;8.316;2023-03-31T06:18:56;26.57;;;4.80;;
3625;SDS011;1827;50.534;8.316;2023-03-31T06:21:21;21.63;;;3.43;;
3625;SDS011;1827;50.534;8.316;2023-03-31T06:23:49;26.77;;;4.03;;
3625;SDS011;1827;50.534;8.316;2023-03-31T06:26:19;27.30;;;4.50;;
3625;SDS011;1827;50.534;8.316;2023-03-31T06:28:46;23.97;;;4.27;;
3625;SDS011;1827;50.534;8.316;2023-03-31T06:31:16;25.13;;;4.03;;
3625;SDS011;1827;50.534;8.316;2023-03-31T06:33:44;25.60;;;4.60;;
3625;SDS011;1827;50.534;8.316;2023-03-31T06:36:11;24.30;;;4.53;;
3625;SDS011;1827;50.534;8.316;2023-03-31T06:38:38;29.03;;;5.60;;
3625;SDS011;1827;50.534;8.316;2023-03-31T06:41:05;27.83;;;5.43;;
3625;SDS011;1827;50.534;8.316;2023-03-31T06:43:32;26.77;;;5.60;;
3625;SDS011;1827;50.534;8.316;2023-03-31T06:45:58;29.10;;;5.67;;
3625;SDS011;1827;50.534;8.316;2023-03-31T06:48:24;29.67;;;7.37;;
3625;SDS011;1827;50.534;8.316;2023-03-31T06:50:50;32.30;;;6.20;;
3625;SDS011;1827;50.534;8.316;2023-03-31T06:53:17;29.57;;;4.73;;
3625;SDS011;1827;50.534;8.316;2023-03-31T06:55:43;26.67;;;4.00;;
3625;SDS011;1827;50.534;8.316;2023-03-31T06:58:12;31.63;;;4.40;;
3625;SDS011;1827;50.534;8.316;2023-03-31T07:00:37;28.17;;;4.67;;
3625;SDS011;1827;50.534;8.316;2023-03-31T07:03:03;28.33;;;4.70;;
3625;SDS011;1827;50.534;8.316;2023-03-31T07:05:30;29.50;;;3.50;;
3625;SDS011;1827;50.534;8.316;2023-03-31T07:07:57;19.87;;;3.37;;
3625;SDS011;1827;50.534;8.316;2023-03-31T07:10:24;20.20;;;3.17;;
3625;SDS011;1827;50.534;8.316;2023-03-31T07:12:52;22.40;;;3.80;;
3625;SDS011;1827;50.534;8.316;2023-03-31T07:15:17;17.63;;;2.80;;
3625;SDS011;1827;50.534;8.316;2023-03-31T07:17:43;20.27;;;2.90;;
3625;SDS011;1827;50.534;8.316;2023-03-31T07:20:10;20.40;;;3.73;;
3625;SDS011;1827;50.534;8.316;2023-03-31T07:22:37;26.33;;;4.00;;
3625;SDS011;1827;50.534;8.316;2023-03-31T07:25:03;26.20;;;3.10;;
3625;SDS011;1827;50.534;8.316;2023-03-31T07:27:29;24.07;;;3.40;;
3625;SDS011;1827;50.534;8.316;2023-03-31T07:29:55;16.70;;;2.87;;
3625;SDS011;1827;50.534;8.316;2023-03-31T07:32:21;24.00;;;3.20;;
3625;SDS011;1827;50.534;8.316;2023-03-31T07:34:47;19.80;;;2.83;;
3625;SDS011;1827;50.534;8.316;2023-03-31T07:37:13;18.77;;;3.40;;
3625;SDS011;1827;50.534;8.316;2023-03-31T07:39:38;21.07;;;3.50;;
3625;SDS011;1827;50.534;8.316;2023-03-31T07:42:04;20.77;;;3.10;;
3625;SDS011;1827;50.534;8.316;2023-03-31T07:44:32;23.10;;;3.70;;
3625;SDS011;1827;50.534;8.316;2023-03-31T07:46:58;22.27;;;3.90;;
3625;SDS011;1827;50.534;8.316;2023-03-31T07:49:28;26.77;;;2.97;;
3625;SDS011;1827;50.534;8.316;2023-03-31T07:51:54;17.83;;;3.10;;
3625;SDS011;1827;50.534;8.316;2023-03-31T07:54:20;17.67;;;2.67;;
3625;SDS011;1827;50.534;8.316;2023-03-31T07:56:47;19.47;;;2.90;;
3625;SDS011;1827;50.534;8.316;2023-03-31T07:59:12;17.83;;;2.73;;
3625;SDS011;1827;50.534;8.316;2023-03-31T08:01:38;17.80;;;3.00;;
3625;SDS011;1827;50.534;8.316;2023-03-31T08:04:04;17.90;;;2.87;;
3625;SDS011;1827;50.534;8.316;2023-03-31T08:06:30;16.77;;;2.93;;
3625;SDS011;1827;50.534;8.316;2023-03-31T08:08:56;17.77;;;2.60;;
3625;SDS011;1827;50.534;8.316;2023-03-31T08:11:22;16.33;;;2.67;;
3625;SDS011;1827;50.534;8.316;2023-03-31T08:13:49;18.30;;;2.60;;
3625;SDS011;1827;50.534;8.316;2023-03-31T08:16:15;21.20;;;3.30;;
3625;SDS011;1827;50.534;8.316;2023-03-31T08:18:41;17.20;;;3.00;;
3625;SDS011;1827;50.534;8.316;2023-03-31T08:21:06;20.50;;;2.90;;
3625;SDS011;1827;50.534;8.316;2023-03-31T08:23:34;24.60;;;3.00;;
3625;SDS011;1827;50.534;8.316;2023-03-31T08:26:33;18.73;;;2.80;;
3625;SDS011;1827;50.534;8.316;2023-03-31T08:28:52;20.50;;;3.13;;
3625;SDS011;1827;50.534;8.316;2023-03-31T08:31:19;16.80;;;2.70;;
3625;SDS011;1827;50.534;8.316;2023-03-31T08:33:47;19.73;;;3.17;;
3625;SDS011;1827;50.534;8.316;2023-03-31T08:36:13;15.03;;;2.10;;
3625;SDS011;1827;50.534;8.316;2023-03-31T08:38:40;16.93;;;2.67;;
3625;SDS011;1827;50.534;8.316;2023-03-31T08:43:50;18.33;;;2.70;;
3625;SDS011;1827;50.534;8.316;2023-03-31T08:46:20;14.70;;;2.20;;
3625;SDS011;1827;50.534;8.316;2023-03-31T08:48:49;15.17;;;2.30;;
3625;SDS011;1827;50.534;8.316;2023-03-31T08:51:30;19.33;;;2.40;;
3625;SDS011;1827;50.534;8.316;2023-03-31T08:54:28;14.40;;;2.10;;
3625;SDS011;1827;50.534;8.316;2023-03-31T08:56:57;16.60;;;1.90;;
3625;SDS011;1827;50.534;8.316;2023-03-31T08:59:32;14.57;;;2.00;;
3625;SDS011;1827;50.534;8.316;2023-03-31T09:02:07;13.37;;;1.90;;
3625;SDS011;1827;50.534;8.316;2023-03-31T09:10:45;16.00;;;2.00;;
3625;SDS011;1827;50.534;8.316;2023-03-31T09:13:25;14.63;;;1.97;;
3625;SDS011;1827;50.534;8.316;2023-03-31T09:16:06;16.13;;;2.23;;
3625;SDS011;1827;50.534;8.316;2023-03-31T09:18:44;17.50;;;2.30;;
3625;SDS011;1827;50.534;8.316;2023-03-31T09:21:25;12.93;;;1.47;;
3625;SDS011;1827;50.534;8.316;2023-03-31T09:27:09;15.37;;;2.47;;
3625;SDS011;1827;50.534;8.316;2023-03-31T09:29:40;14.60;;;2.27;;
3625;SDS011;1827;50.534;8.316;2023-03-31T09:32:18;18.60;;;2.93;;
3625;SDS011;1827;50.534;8.316;2023-03-31T09:34:52;14.30;;;2.30;;
3625;SDS011;1827;50.534;8.316;2023-03-31T09:37:25;20.20;;;2.80;;
3625;SDS011;1827;50.534;8.316;2023-03-31T09:39:55;14.97;;;2.07;;
3625;SDS011;1827;50.534;8.316;2023-03-31T09:42:23;17.97;;;2.70;;
3625;SDS011;1827;50.534;8.316;2023-03-31T09:44:49;16.77;;;2.67;;
3625;SDS011;1827;50.534;8.316;2023-03-31T09:47:16;17.50;;;3.43;;
3625;SDS011;1827;50.534;8.316;2023-03-31T09:49:46;16.30;;;3.00;;
3625;SDS011;1827;50.534;8.316;2023-03-31T09:52:15;21.00;;;3.10;;
3625;SDS011;1827;50.534;8.316;2023-03-31T09:54:52;19.67;;;3.00;;
3625;SDS011;1827;50.534;8.316;2023-03-31T09:59:53;22.17;;;4.60;;
3625;SDS011;1827;50.534;8.316;2023-03-31T10:02:37;19.77;;;3.50;;
3625;SDS011;1827;50.534;8.316;2023-03-31T10:05:31;21.83;;;3.93;;
3625;SDS011;1827;50.534;8.316;2023-03-31T10:08:16;22.60;;;3.63;;
3625;SDS011;1827;50.534;8.316;2023-03-31T10:10:53;20.03;;;3.90;;
3625;SDS011;1827;50.534;8.316;2023-03-31T10:13:22;20.67;;;3.43;;
3625;SDS011;1827;50.534;8.316;2023-03-31T10:15:54;17.60;;;3.00;;
3625;SDS011;1827;50.534;8.316;2023-03-31T10:18:37;25.43;;;3.50;;
3625;SDS011;1827;50.534;8.316;2023-03-31T10:21:05;25.97;;;3.80;;
3625;SDS011;1827;50.534;8.316;2023-03-31T10:23:40;17.90;;;3.60;;
3625;SDS011;1827;50.534;8.316;2023-03-31T10:26:11;20.47;;;3.20;;
3625;SDS011;1827;50.534;8.316;2023-03-31T10:28:41;23.10;;;3.33;;
3625;SDS011;1827;50.534;8.316;2023-03-31T10:31:06;21.40;;;3.37;;
3625;SDS011;1827;50.534;8.316;2023-03-31T10:33:33;19.10;;;4.07;;
3625;SDS011;1827;50.534;8.316;2023-03-31T10:36:07;24.27;;;2.90;;
3625;SDS011;1827;50.534;8.316;2023-03-31T10:38:43;18.87;;;2.97;;
3625;SDS011;1827;50.534;8.316;2023-03-31T10:41:11;21.67;;;3.40;;
3625;SDS011;1827;50.534;8.316;2023-03-31T10:43:47;17.53;;;2.90;;
3625;SDS011;1827;50.534;8.316;2023-03-31T10:46:18;15.13;;;2.87;;
3625;SDS011;1827;50.534;8.316;2023-03-31T10:48:44;18.00;;;2.83;;
3625;SDS011;1827;50.534;8.316;2023-03-31T10:56:17;20.63;;;3.23;;
3625;SDS011;1827;50.534;8.316;2023-03-31T11:01:54;23.33;;;3.23;;
3625;SDS011;1827;50.534;8.316;2023-03-31T11:04:51;15.97;;;2.60;;
3625;SDS011;1827;50.534;8.316;2023-03-31T11:10:43;21.43;;;2.27;;
3625;SDS011;1827;50.534;8.316;2023-03-31T11:15:51;15.30;;;2.20;;
3625;SDS011;1827;50.534;8.316;2023-03-31T11:18:54;18.43;;;2.30;;
3625;SDS011;1827;50.534;8.316;2023-03-31T11:30:03;18.17;;;2.30;;
3625;SDS011;1827;50.534;8.316;2023-03-31T11:32:57;15.30;;;2.53;;
3625;SDS011;1827;50.534;8.316;2023-03-31T11:41:33;18.87;;;2.23;;
3625;SDS011;1827;50.534;8.316;2023-03-31T11:44:22;17.63;;;2.37;;
3625;SDS011;1827;50.534;8.316;2023-03-31T11:49:33;17.67;;;2.53;;
3625;SDS011;1827;50.534;8.316;2023-03-31T11:52:36;16.83;;;2.40;;
3625;SDS011;1827;50.534;8.316;2023-03-31T12:00:20;17.90;;;2.30;;
3625;SDS011;1827;50.534;8.316;2023-03-31T12:02:53;15.50;;;2.00;;
3625;SDS011;1827;50.534;8.316;2023-03-31T12:05:26;16.87;;;2.70;;
3625;SDS011;1827;50.534;8.316;2023-03-31T12:08:06;17.13;;;2.00;;
3625;SDS011;1827;50.534;8.316;2023-03-31T12:10:38;14.37;;;1.70;;
3625;SDS011;1827;50.534;8.316;2023-03-31T12:16:21;17.20;;;2.13;;
3625;SDS011;1827;50.534;8.316;2023-03-31T12:21:36;16.23;;;1.90;;
3625;SDS011;1827;50.534;8.316;2023-03-31T12:24:04;16.97;;;2.20;;
3625;SDS011;1827;50.534;8.316;2023-03-31T12:29:18;21.67;;;2.23;;
3625;SDS011;1827;50.534;8.316;2023-03-31T12:31:51;16.60;;;1.90;;
3625;SDS011;1827;50.534;8.316;2023-03-31T12:34:21;14.00;;;1.70;;
3625;SDS011;1827;50.534;8.316;2023-03-31T12:45:16;19.00;;;2.47;;
3625;SDS011;1827;50.534;8.316;2023-03-31T12:57:01;23.17;;;2.43;;
3625;SDS011;1827;50.534;8.316;2023-03-31T12:59:31;17.43;;;2.20;;
3625;SDS011;1827;50.534;8.316;2023-03-31T13:04:39;19.30;;;2.00;;
3625;SDS011;1827;50.534;8.316;2023-03-31T13:07:31;20.63;;;2.63;;
3625;SDS011;1827;50.534;8.316;2023-03-31T13:12:53;19.00;;;2.47;;
3625;SDS011;1827;50.534;8.316;2023-03-31T13:15:35;29.33;;;3.77;;
3625;SDS011;1827;50.534;8.316;2023-03-31T13:18:02;19.07;;;2.20;;
3625;SDS011;1827;50.534;8.316;2023-03-31T13:20:31;19.00;;;2.20;;
3625;SDS011;1827;50.534;8.316;2023-03-31T13:23:06;20.17;;;2.30;;
3625;SDS011;1827;50.534;8.316;2023-03-31T13:25:47;20.10;;;2.70;;
3625;SDS011;1827;50.534;8.316;2023-03-31T13:30:50;21.53;;;2.57;;
3625;SDS011;1827;50.534;8.316;2023-03-31T13:35:51;17.50;;;2.30;;
3625;SDS011;1827;50.534;8.316;2023-03-31T14:03:43;19.50;;;2.30;;
3625;SDS011;1827;50.534;8.316;2023-03-31T14:09:14;21.53;;;2.77;;
3625;SDS011;1827;50.534;8.316;2023-03-31T14:11:49;16.83;;;2.40;;
3625;SDS011;1827;50.534;8.316;2023-03-31T14:14:16;23.70;;;3.47;;
3625;SDS011;1827;50.534;8.316;2023-03-31T14:16:45;19.90;;;2.80;;
3625;SDS011;1827;50.534;8.316;2023-03-31T14:22:28;22.10;;;2.60;;
3625;SDS011;1827;50.534;8.316;2023-03-31T14:28:07;20.57;;;2.60;;
3625;SDS011;1827;50.534;8.316;2023-03-31T14:36:56;22.33;;;2.70;;
3625;SDS011;1827;50.534;8.316;2023-03-31T14:39:25;18.07;;;2.03;;
3625;SDS011;1827;50.534;8.316;2023-03-31T14:41:55;22.43;;;2.57;;
3625;SDS011;1827;50.534;8.316;2023-03-31T14:44:24;18.10;;;2.27;;
3625;SDS011;1827;50.534;8.316;2023-03-31T14:46:50;22.23;;;2.27;;
3625;SDS011;1827;50.534;8.316;2023-03-31T14:49:20;17.20;;;2.07;;
3625;SDS011;1827;50.534;8.316;2023-03-31T14:51:51;21.23;;;2.50;;
3625;SDS011;1827;50.534;8.316;2023-03-31T14:54:19;18.30;;;2.33;;
3625;SDS011;1827;50.534;8.316;2023-03-31T14:56:46;18.33;;;2.60;;
3625;SDS011;1827;50.534;8.316;2023-03-31T14:59:27;19.37;;;2.40;;
3625;SDS011;1827;50.534;8.316;2023-03-31T15:01:57;18.60;;;2.70;;
3625;SDS011;1827;50.534;8.316;2023-03-31T15:04:24;17.93;;;2.33;;
3625;SDS011;1827;50.534;8.316;2023-03-31T15:06:54;20.33;;;2.07;;
3625;SDS011;1827;50.534;8.316;2023-03-31T15:09:31;18.67;;;2.10;;
3625;SDS011;1827;50.534;8.316;2023-03-31T15:11:59;17.97;;;2.13;;
3625;SDS011;1827;50.534;8.316;2023-03-31T15:14:31;19.17;;;2.70;;
3625;SDS011;1827;50.534;8.316;2023-03-31T15:17:00;20.37;;;2.77;;
3625;SDS011;1827;50.534;8.316;2023-03-31T15:19:30;19.43;;;2.47;;
3625;SDS011;1827;50.534;8.316;2023-03-31T15:22:07;17.83;;;2.53;;
3625;SDS011;1827;50.534;8.316;2023-03-31T15:24:38;20.00;;;2.50;;
3625;SDS011;1827;50.534;8.316;2023-03-31T15:27:08;16.00;;;2.40;;
3625;SDS011;1827;50.534;8.316;2023-03-31T15:29:54;20.23;;;2.53;;
3625;SDS011;1827;50.534;8.316;2023-03-31T15:32:25;17.63;;;2.30;;
3625;SDS011;1827;50.534;8.316;2023-03-31T15:34:53;19.33;;;2.63;;
3625;SDS011;1827;50.534;8.316;2023-03-31T15:37:23;19.27;;;2.10;;
3625;SDS011;1827;50.534;8.316;2023-03-31T15:39:53;20.87;;;2.70;;
3625;SDS011;1827;50.534;8.316;2023-03-31T15:42:21;20.90;;;2.60;;
3625;SDS011;1827;50.534;8.316;2023-03-31T15:47:51;23.47;;;2.90;;
3625;SDS011;1827;50.534;8.316;2023-03-31T15:50:19;18.27;;;2.57;;
3625;SDS011;1827;50.534;8.316;2023-03-31T15:52:47;16.53;;;2.40;;
3625;SDS011;1827;50.534;8.316;2023-03-31T15:55:27;19.60;;;2.90;;
3625;SDS011;1827;50.534;8.316;2023-03-31T15:57:56;19.63;;;4.10;;
3625;SDS011;1827;50.534;8.316;2023-03-31T16:03:03;17.50;;;3.30;;
3625;SDS011;1827;50.534;8.316;2023-03-31T16:05:39;20.60;;;2.63;;
3625;SDS011;1827;50.534;8.316;2023-03-31T16:08:12;16.40;;;2.73;;
3625;SDS011;1827;50.534;8.316;2023-03-31T16:10:41;16.43;;;2.47;;
3625;SDS011;1827;50.534;8.316;2023-03-31T16:13:08;16.30;;;2.37;;
3625;SDS011;1827;50.534;8.316;2023-03-31T16:18:07;21.47;;;2.73;;
3625;SDS011;1827;50.534;8.316;2023-03-31T16:20:49;17.40;;;2.70;;
3625;SDS011;1827;50.534;8.316;2023-03-31T16:23:25;21.50;;;3.50;;
3625;SDS011;1827;50.534;8.316;2023-03-31T16:25:56;20.93;;;3.10;;
3625;SDS011;1827;50.534;8.316;2023-03-31T16:28:25;28.00;;;4.17;;
3625;SDS011;1827;50.534;8.316;2023-03-31T16:30:55;24.03;;;3.80;;
3625;SDS011;1827;50.534;8.316;2023-03-31T16:33:22;20.27;;;3.03;;
3625;SDS011;1827;50.534;8.316;2023-03-31T16:35:52;19.37;;;2.60;;
3625;SDS011;1827;50.534;8.316;2023-03-31T16:38:21;26.33;;;3.90;;
3625;SDS011;1827;50.534;8.316;2023-03-31T16:40:48;22.20;;;3.50;;
3625;SDS011;1827;50.534;8.316;2023-03-31T16:43:30;22.67;;;3.47;;
3625;SDS011;1827;50.534;8.316;2023-03-31T16:45:59;21.40;;;2.90;;
3625;SDS011;1827;50.534;8.316;2023-03-31T16:48:28;21.23;;;4.80;;
3625;SDS011;1827;50.534;8.316;2023-03-31T16:50:57;26.37;;;5.80;;
3625;SDS011;1827;50.534;8.316;2023-03-31T16:53:31;27.90;;;8.10;;
3625;SDS011;1827;50.534;8.316;2023-03-31T16:55:58;27.77;;;4.40;;
3625;SDS011;1827;50.534;8.316;2023-03-31T16:58:24;19.03;;;4.97;;
3625;SDS011;1827;50.534;8.316;2023-03-31T17:00:53;21.30;;;3.27;;
3625;SDS011;1827;50.534;8.316;2023-03-31T17:03:20;19.77;;;2.57;;
3625;SDS011;1827;50.534;8.316;2023-03-31T17:05:47;16.73;;;2.47;;
3625;SDS011;1827;50.534;8.316;2023-03-31T17:08:17;23.07;;;2.30;;
3625;SDS011;1827;50.534;8.316;2023-03-31T17:11:01;19.40;;;2.90;;
3625;SDS011;1827;50.534;8.316;2023-03-31T17:13:32;16.53;;;2.23;;
3625;SDS011;1827;50.534;8.316;2023-03-31T17:15:58;18.17;;;3.40;;
3625;SDS011;1827;50.534;8.316;2023-03-31T17:18:25;16.33;;;2.33;;
3625;SDS011;1827;50.534;8.316;2023-03-31T17:20:51;17.80;;;2.40;;
3625;SDS011;1827;50.534;8.316;2023-03-31T17:23:20;20.57;;;3.97;;
3625;SDS011;1827;50.534;8.316;2023-03-31T17:25:47;22.70;;;3.10;;
3625;SDS011;1827;50.534;8.316;2023-03-31T17:28:13;18.97;;;3.40;;
3625;SDS011;1827;50.534;8.316;2023-03-31T17:30:40;16.90;;;2.73;;
3625;SDS011;1827;50.534;8.316;2023-03-31T17:33:08;23.33;;;2.97;;
3625;SDS011;1827;50.534;8.316;2023-03-31T17:35:35;20.60;;;2.80;;
3625;SDS011;1827;50.534;8.316;2023-03-31T17:38:01;19.77;;;2.33;;
3625;SDS011;1827;50.534;8.316;2023-03-31T17:40:28;17.77;;;3.40;;
3625;SDS011;1827;50.534;8.316;2023-03-31T17:42:58;26.57;;;3.53;;
3625;SDS011;1827;50.534;8.316;2023-03-31T17:45:24;16.50;;;3.20;;
3625;SDS011;1827;50.534;8.316;2023-03-31T17:47:50;21.63;;;3.60;;
3625;SDS011;1827;50.534;8.316;2023-03-31T17:50:16;21.43;;;2.83;;
3625;SDS011;1827;50.534;8.316;2023-03-31T17:52:42;21.00;;;3.13;;
3625;SDS011;1827;50.534;8.316;2023-03-31T17:55:07;19.23;;;3.10;;
3625;SDS011;1827;50.534;8.316;2023-03-31T17:57:33;22.67;;;2.70;;
3625;SDS011;1827;50.534;8.316;2023-03-31T18:00:01;17.07;;;2.10;;
3625;SDS011;1827;50.534;8.316;2023-03-31T18:02:38;17.93;;;2.73;;
3625;SDS011;1827;50.534;8.316;2023-03-31T18:05:05;16.57;;;2.43;;
3625;SDS011;1827;50.534;8.316;2023-03-31T18:07:32;20.63;;;2.90;;
3625;SDS011;1827;50.534;8.316;2023-03-31T18:09:59;18.20;;;2.57;;
3625;SDS011;1827;50.534;8.316;2023-03-31T18:12:24;22.23;;;2.53;;
3625;SDS011;1827;50.534;8.316;2023-03-31T18:14:53;13.80;;;1.63;;
3625;SDS011;1827;50.534;8.316;2023-03-31T18:17:19;20.43;;;2.50;;
3625;SDS011;1827;50.534;8.316;2023-03-31T18:19:45;22.20;;;2.70;;
3625;SDS011;1827;50.534;8.316;2023-03-31T18:22:11;18.70;;;2.77;;